Terminal Aerodrome Forecast
Issued by NWS

Home | Current Version | Previous Version | Text Only | Print | Product List | Glossary On
Versions: 1 2 3 4 5 6 7 8 9 10 11 12 13 14 15 16 17 18 19 20
000
FTUS44 KLZK 020500
TAFADF
TAF
KADF 020520Z 0206/0306 16004KT P6SM SCT050 SCT250
     FM021000 VRB03KT 5SM BR OVC015
     FM021400 16006KT P6SM BKN025 OVC050
     FM021800 18008G16KT P6SM VCTS BKN050CB
     FM030300 20005KT 5SM TSRA BR OVC030CB=

USA.gov is the U.S. government's official web portal to all federal, state and local government web resources and services.